sensor_id;sensor_type;location;lat;lon;timestamp;temperature;humidity
50570;DHT22;36525;49.398;7.614;2023-04-03T00:01:45;3.60;99.90
50570;DHT22;36525;49.398;7.614;2023-04-03T00:04:12;3.40;99.90
50570;DHT22;36525;49.398;7.614;2023-04-03T00:06:40;3.50;99.90
50570;DHT22;36525;49.398;7.614;2023-04-03T00:09:06;3.40;99.90
50570;DHT22;36525;49.398;7.614;2023-04-03T00:11:36;3.50;99.90
50570;DHT22;36525;49.398;7.614;2023-04-03T00:14:03;3.60;99.90
50570;DHT22;36525;49.398;7.614;2023-04-03T00:16:32;3.50;99.90
50570;DHT22;36525;49.398;7.614;2023-04-03T00:19:00;3.50;99.90
50570;DHT22;36525;49.398;7.614;2023-04-03T00:21:27;3.50;99.90
50570;DHT22;36525;49.398;7.614;2023-04-03T00:23:53;3.40;99.90
50570;DHT22;36525;49.398;7.614;2023-04-03T00:26:21;3.30;99.90
50570;DHT22;36525;49.398;7.614;2023-04-03T00:28:48;3.30;99.90
50570;DHT22;36525;49.398;7.614;2023-04-03T00:31:15;3.20;99.90
50570;DHT22;36525;49.398;7.614;2023-04-03T00:33:43;3.10;99.90
50570;DHT22;36525;49.398;7.614;2023-04-03T00:36:10;3.00;99.90
50570;DHT22;36525;49.398;7.614;2023-04-03T00:38:38;3.00;99.90
50570;DHT22;36525;49.398;7.614;2023-04-03T00:41:06;2.90;99.90
50570;DHT22;36525;49.398;7.614;2023-04-03T00:43:34;2.90;99.90
50570;DHT22;36525;49.398;7.614;2023-04-03T00:46:02;2.80;99.90
50570;DHT22;36525;49.398;7.614;2023-04-03T00:48:33;2.80;99.90
50570;DHT22;36525;49.398;7.614;2023-04-03T00:51:04;2.80;99.90
50570;DHT22;36525;49.398;7.614;2023-04-03T00:53:44;2.70;99.90
50570;DHT22;36525;49.398;7.614;2023-04-03T00:56:18;2.70;99.90
50570;DHT22;36525;49.398;7.614;2023-04-03T01:01:25;2.60;99.90
50570;DHT22;36525;49.398;7.614;2023-04-03T01:03:54;2.50;99.90
50570;DHT22;36525;49.398;7.614;2023-04-03T01:06:27;2.50;99.90
50570;DHT22;36525;49.398;7.614;2023-04-03T01:08:58;2.50;99.90
50570;DHT22;36525;49.398;7.614;2023-04-03T01:11:26;2.40;99.90
50570;DHT22;36525;49.398;7.614;2023-04-03T01:13:54;2.40;99.90
50570;DHT22;36525;49.398;7.614;2023-04-03T01:16:21;2.40;99.90
50570;DHT22;36525;49.398;7.614;2023-04-03T01:18:48;2.30;99.90
50570;DHT22;36525;49.398;7.614;2023-04-03T01:21:54;2.30;99.90
50570;DHT22;36525;49.398;7.614;2023-04-03T01:24:35;2.20;99.90
50570;DHT22;36525;49.398;7.614;2023-04-03T01:27:05;2.20;99.90
50570;DHT22;36525;49.398;7.614;2023-04-03T01:29:33;2.20;99.90
50570;DHT22;36525;49.398;7.614;2023-04-03T01:32:02;2.10;99.90
50570;DHT22;36525;49.398;7.614;2023-04-03T01:34:30;2.10;99.90
50570;DHT22;36525;49.398;7.614;2023-04-03T01:36:58;2.00;99.90
50570;DHT22;36525;49.398;7.614;2023-04-03T01:39:25;2.00;99.90
50570;DHT22;36525;49.398;7.614;2023-04-03T01:41:52;1.90;99.90
50570;DHT22;36525;49.398;7.614;2023-04-03T01:44:19;1.90;99.90
50570;DHT22;36525;49.398;7.614;2023-04-03T01:46:46;1.90;99.90
50570;DHT22;36525;49.398;7.614;2023-04-03T01:49:14;1.90;99.90
50570;DHT22;36525;49.398;7.614;2023-04-03T01:51:41;1.90;99.90
50570;DHT22;36525;49.398;7.614;2023-04-03T01:54:08;1.80;99.90
50570;DHT22;36525;49.398;7.614;2023-04-03T01:56:35;1.80;99.90
50570;DHT22;36525;49.398;7.614;2023-04-03T01:59:02;1.80;99.90
50570;DHT22;36525;49.398;7.614;2023-04-03T02:01:29;1.80;99.90
50570;DHT22;36525;49.398;7.614;2023-04-03T02:03:57;1.80;99.90
50570;DHT22;36525;49.398;7.614;2023-04-03T02:06:24;1.80;99.90
50570;DHT22;36525;49.398;7.614;2023-04-03T02:08:51;1.80;99.90
50570;DHT22;36525;49.398;7.614;2023-04-03T02:11:19;1.80;99.90
50570;DHT22;36525;49.398;7.614;2023-04-03T02:13:46;1.70;99.90
50570;DHT22;36525;49.398;7.614;2023-04-03T02:16:13;1.70;99.90
50570;DHT22;36525;49.398;7.614;2023-04-03T02:18:41;1.60;99.90
50570;DHT22;36525;49.398;7.614;2023-04-03T02:21:08;1.60;99.90
50570;DHT22;36525;49.398;7.614;2023-04-03T02:23:35;1.50;99.90
50570;DHT22;36525;49.398;7.614;2023-04-03T02:26:11;1.60;99.90
50570;DHT22;36525;49.398;7.614;2023-04-03T02:28:40;1.50;99.90
50570;DHT22;36525;49.398;7.614;2023-04-03T02:31:10;1.50;99.90
50570;DHT22;36525;49.398;7.614;2023-04-03T02:33:38;1.40;99.90
50570;DHT22;36525;49.398;7.614;2023-04-03T02:36:07;1.40;99.90
50570;DHT22;36525;49.398;7.614;2023-04-03T02:38:41;1.30;99.90
50570;DHT22;36525;49.398;7.614;2023-04-03T02:41:09;1.40;99.90
50570;DHT22;36525;49.398;7.614;2023-04-03T02:43:38;1.30;99.90
50570;DHT22;36525;49.398;7.614;2023-04-03T02:46:06;1.30;99.90
50570;DHT22;36525;49.398;7.614;2023-04-03T02:48:34;1.30;99.90
50570;DHT22;36525;49.398;7.614;2023-04-03T02:51:02;1.30;99.90
50570;DHT22;36525;49.398;7.614;2023-04-03T02:53:29;1.30;99.90
50570;DHT22;36525;49.398;7.614;2023-04-03T02:55:57;1.30;99.90
50570;DHT22;36525;49.398;7.614;2023-04-03T02:58:27;1.30;99.90
50570;DHT22;36525;49.398;7.614;2023-04-03T03:01:09;1.30;99.90
50570;DHT22;36525;49.398;7.614;2023-04-03T03:03:36;1.30;99.90
50570;DHT22;36525;49.398;7.614;2023-04-03T03:06:09;1.30;99.90
50570;DHT22;36525;49.398;7.614;2023-04-03T03:08:39;1.30;99.90
50570;DHT22;36525;49.398;7.614;2023-04-03T03:11:06;1.30;99.90
50570;DHT22;36525;49.398;7.614;2023-04-03T03:13:34;1.30;99.90
50570;DHT22;36525;49.398;7.614;2023-04-03T03:16:02;1.30;99.90
50570;DHT22;36525;49.398;7.614;2023-04-03T03:18:30;1.30;99.90
50570;DHT22;36525;49.398;7.614;2023-04-03T03:20:58;1.20;99.90
50570;DHT22;36525;49.398;7.614;2023-04-03T03:23:32;1.30;99.90
50570;DHT22;36525;49.398;7.614;2023-04-03T03:26:03;1.20;99.90
50570;DHT22;36525;49.398;7.614;2023-04-03T03:28:32;1.20;99.90
50570;DHT22;36525;49.398;7.614;2023-04-03T03:31:00;1.20;99.90
50570;DHT22;36525;49.398;7.614;2023-04-03T03:33:28;1.20;99.90
50570;DHT22;36525;49.398;7.614;2023-04-03T03:35:55;1.10;99.90
50570;DHT22;36525;49.398;7.614;2023-04-03T03:38:23;1.10;99.90
50570;DHT22;36525;49.398;7.614;2023-04-03T03:40:52;1.10;99.90
50570;DHT22;36525;49.398;7.614;2023-04-03T03:43:20;1.10;99.90
50570;DHT22;36525;49.398;7.614;2023-04-03T03:45:53;1.10;99.90
50570;DHT22;36525;49.398;7.614;2023-04-03T03:48:22;1.10;99.90
50570;DHT22;36525;49.398;7.614;2023-04-03T03:50:49;1.10;99.90
50570;DHT22;36525;49.398;7.614;2023-04-03T03:53:17;1.10;99.90
50570;DHT22;36525;49.398;7.614;2023-04-03T03:55:45;1.00;99.90
50570;DHT22;36525;49.398;7.614;2023-04-03T03:58:13;1.00;99.90
50570;DHT22;36525;49.398;7.614;2023-04-03T04:00:40;1.00;99.90
50570;DHT22;36525;49.398;7.614;2023-04-03T04:03:07;1.00;99.90
50570;DHT22;36525;49.398;7.614;2023-04-03T04:05:34;0.90;99.90
50570;DHT22;36525;49.398;7.614;2023-04-03T04:08:02;0.90;99.90
50570;DHT22;36525;49.398;7.614;2023-04-03T04:10:30;0.90;99.90
50570;DHT22;36525;49.398;7.614;2023-04-03T04:12:57;0.80;99.90
50570;DHT22;36525;49.398;7.614;2023-04-03T04:15:24;0.80;99.90
50570;DHT22;36525;49.398;7.614;2023-04-03T04:17:52;0.80;99.90
50570;DHT22;36525;49.398;7.614;2023-04-03T04:20:20;0.80;99.90
50570;DHT22;36525;49.398;7.614;2023-04-03T04:22:47;0.80;99.90
50570;DHT22;36525;49.398;7.614;2023-04-03T04:25:14;0.80;99.90
50570;DHT22;36525;49.398;7.614;2023-04-03T04:27:42;0.80;99.90
50570;DHT22;36525;49.398;7.614;2023-04-03T04:30:09;0.80;99.90
50570;DHT22;36525;49.398;7.614;2023-04-03T04:32:37;0.80;99.90
50570;DHT22;36525;49.398;7.614;2023-04-03T04:35:05;0.80;99.90
50570;DHT22;36525;49.398;7.614;2023-04-03T04:37:32;0.80;99.90
50570;DHT22;36525;49.398;7.614;2023-04-03T04:39:59;0.80;99.90
50570;DHT22;36525;49.398;7.614;2023-04-03T04:42:28;0.80;99.90
50570;DHT22;36525;49.398;7.614;2023-04-03T04:44:55;0.80;99.90
50570;DHT22;36525;49.398;7.614;2023-04-03T04:47:22;0.90;99.90
50570;DHT22;36525;49.398;7.614;2023-04-03T04:49:50;0.80;99.90
50570;DHT22;36525;49.398;7.614;2023-04-03T04:52:21;0.80;99.90
50570;DHT22;36525;49.398;7.614;2023-04-03T04:54:57;0.80;99.90
50570;DHT22;36525;49.398;7.614;2023-04-03T04:57:24;0.70;99.90
50570;DHT22;36525;49.398;7.614;2023-04-03T04:59:51;0.70;99.90
50570;DHT22;36525;49.398;7.614;2023-04-03T05:02:18;0.70;99.90
50570;DHT22;36525;49.398;7.614;2023-04-03T05:04:45;0.70;99.90
50570;DHT22;36525;49.398;7.614;2023-04-03T05:07:13;0.70;99.90
50570;DHT22;36525;49.398;7.614;2023-04-03T05:09:39;0.70;99.90
50570;DHT22;36525;49.398;7.614;2023-04-03T05:12:09;0.70;99.90
50570;DHT22;36525;49.398;7.614;2023-04-03T05:14:36;0.70;99.90
50570;DHT22;36525;49.398;7.614;2023-04-03T05:17:03;0.70;99.90
50570;DHT22;36525;49.398;7.614;2023-04-03T05:19:30;0.70;99.90
50570;DHT22;36525;49.398;7.614;2023-04-03T05:21:58;0.70;99.90
50570;DHT22;36525;49.398;7.614;2023-04-03T05:24:27;0.70;99.90
50570;DHT22;36525;49.398;7.614;2023-04-03T05:26:54;0.70;99.90
50570;DHT22;36525;49.398;7.614;2023-04-03T05:29:24;0.70;99.90
50570;DHT22;36525;49.398;7.614;2023-04-03T05:31:51;0.80;99.90
50570;DHT22;36525;49.398;7.614;2023-04-03T05:34:18;0.80;99.90
50570;DHT22;36525;49.398;7.614;2023-04-03T05:36:46;0.90;99.90
50570;DHT22;36525;49.398;7.614;2023-04-03T05:39:13;0.90;99.90
50570;DHT22;36525;49.398;7.614;2023-04-03T05:41:40;1.00;99.90
50570;DHT22;36525;49.398;7.614;2023-04-03T05:44:07;1.00;99.90
50570;DHT22;36525;49.398;7.614;2023-04-03T05:46:34;1.10;99.90
50570;DHT22;36525;49.398;7.614;2023-04-03T05:49:02;1.10;99.90
50570;DHT22;36525;49.398;7.614;2023-04-03T05:51:33;1.10;99.90
50570;DHT22;36525;49.398;7.614;2023-04-03T05:54:16;1.10;99.90
50570;DHT22;36525;49.398;7.614;2023-04-03T05:56:45;1.20;99.90
50570;DHT22;36525;49.398;7.614;2023-04-03T05:59:13;1.20;99.90
50570;DHT22;36525;49.398;7.614;2023-04-03T06:01:40;1.20;99.90
50570;DHT22;36525;49.398;7.614;2023-04-03T06:04:07;1.30;99.90
50570;DHT22;36525;49.398;7.614;2023-04-03T06:06:56;1.40;99.90
50570;DHT22;36525;49.398;7.614;2023-04-03T06:09:26;1.40;99.90
50570;DHT22;36525;49.398;7.614;2023-04-03T06:11:58;1.40;99.90
50570;DHT22;36525;49.398;7.614;2023-04-03T06:14:25;1.50;99.90
50570;DHT22;36525;49.398;7.614;2023-04-03T06:16:53;1.60;99.90
50570;DHT22;36525;49.398;7.614;2023-04-03T06:19:21;1.70;99.90
50570;DHT22;36525;49.398;7.614;2023-04-03T06:21:49;1.70;99.90
50570;DHT22;36525;49.398;7.614;2023-04-03T06:24:17;1.90;99.90
50570;DHT22;36525;49.398;7.614;2023-04-03T06:26:45;1.90;99.90
50570;DHT22;36525;49.398;7.614;2023-04-03T06:29:12;2.10;99.90
50570;DHT22;36525;49.398;7.614;2023-04-03T06:31:40;2.10;99.90
50570;DHT22;36525;49.398;7.614;2023-04-03T06:34:07;2.20;99.90
50570;DHT22;36525;49.398;7.614;2023-04-03T06:36:35;2.20;99.90
50570;DHT22;36525;49.398;7.614;2023-04-03T06:39:02;2.30;99.90
50570;DHT22;36525;49.398;7.614;2023-04-03T06:41:30;2.40;99.90
50570;DHT22;36525;49.398;7.614;2023-04-03T06:44:01;2.50;99.90
50570;DHT22;36525;49.398;7.614;2023-04-03T06:46:29;2.50;99.90
50570;DHT22;36525;49.398;7.614;2023-04-03T06:48:57;2.60;99.90
50570;DHT22;36525;49.398;7.614;2023-04-03T06:51:25;2.70;99.90
50570;DHT22;36525;49.398;7.614;2023-04-03T06:53:57;2.60;99.90
50570;DHT22;36525;49.398;7.614;2023-04-03T06:56:26;2.70;99.90
50570;DHT22;36525;49.398;7.614;2023-04-03T06:58:54;2.80;99.90
50570;DHT22;36525;49.398;7.614;2023-04-03T07:01:24;2.90;99.90
50570;DHT22;36525;49.398;7.614;2023-04-03T07:03:52;3.00;99.90
50570;DHT22;36525;49.398;7.614;2023-04-03T07:06:20;3.00;99.90
50570;DHT22;36525;49.398;7.614;2023-04-03T07:08:47;3.10;99.90
50570;DHT22;36525;49.398;7.614;2023-04-03T07:11:16;3.10;99.90
50570;DHT22;36525;49.398;7.614;2023-04-03T07:13:46;3.10;99.90
50570;DHT22;36525;49.398;7.614;2023-04-03T07:16:13;3.10;99.90
50570;DHT22;36525;49.398;7.614;2023-04-03T07:18:40;3.20;99.90
50570;DHT22;36525;49.398;7.614;2023-04-03T07:21:08;3.30;99.90
50570;DHT22;36525;49.398;7.614;2023-04-03T07:23:34;3.30;99.90
50570;DHT22;36525;49.398;7.614;2023-04-03T07:29:35;3.40;99.90
50570;DHT22;36525;49.398;7.614;2023-04-03T07:32:03;3.50;99.90
50570;DHT22;36525;49.398;7.614;2023-04-03T07:34:30;3.50;99.90
50570;DHT22;36525;49.398;7.614;2023-04-03T07:36:57;3.50;99.90
50570;DHT22;36525;49.398;7.614;2023-04-03T07:39:25;3.50;99.90
50570;DHT22;36525;49.398;7.614;2023-04-03T07:41:52;3.60;99.90
50570;DHT22;36525;49.398;7.614;2023-04-03T07:44:20;3.70;99.90
50570;DHT22;36525;49.398;7.614;2023-04-03T07:46:48;3.70;99.90
50570;DHT22;36525;49.398;7.614;2023-04-03T07:49:15;3.90;99.90
50570;DHT22;36525;49.398;7.614;2023-04-03T07:51:43;3.90;99.90
50570;DHT22;36525;49.398;7.614;2023-04-03T07:54:11;4.10;99.90
50570;DHT22;36525;49.398;7.614;2023-04-03T07:56:38;4.20;99.90
50570;DHT22;36525;49.398;7.614;2023-04-03T07:59:05;4.10;99.90
50570;DHT22;36525;49.398;7.614;2023-04-03T08:04:58;4.30;99.90
50570;DHT22;36525;49.398;7.614;2023-04-03T08:07:26;4.40;99.90
50570;DHT22;36525;49.398;7.614;2023-04-03T08:09:53;4.70;99.90
50570;DHT22;36525;49.398;7.614;2023-04-03T08:12:20;4.70;99.90
50570;DHT22;36525;49.398;7.614;2023-04-03T08:14:47;4.90;99.90
50570;DHT22;36525;49.398;7.614;2023-04-03T08:17:14;4.90;99.90
50570;DHT22;36525;49.398;7.614;2023-04-03T08:19:41;4.90;99.90
50570;DHT22;36525;49.398;7.614;2023-04-03T08:22:08;4.90;99.90
50570;DHT22;36525;49.398;7.614;2023-04-03T08:24:35;4.80;99.90
50570;DHT22;36525;49.398;7.614;2023-04-03T08:27:04;4.80;99.90
50570;DHT22;36525;49.398;7.614;2023-04-03T08:29:32;4.90;99.90
50570;DHT22;36525;49.398;7.614;2023-04-03T08:32:00;5.60;99.90
50570;DHT22;36525;49.398;7.614;2023-04-03T08:34:27;5.70;99.90
50570;DHT22;36525;49.398;7.614;2023-04-03T08:36:54;5.60;99.90
50570;DHT22;36525;49.398;7.614;2023-04-03T08:39:21;5.60;99.90
50570;DHT22;36525;49.398;7.614;2023-04-03T08:41:48;5.90;99.90
50570;DHT22;36525;49.398;7.614;2023-04-03T08:44:38;6.40;99.90
50570;DHT22;36525;49.398;7.614;2023-04-03T08:47:22;6.20;99.90
50570;DHT22;36525;49.398;7.614;2023-04-03T08:50:00;6.40;99.90
50570;DHT22;36525;49.398;7.614;2023-04-03T08:52:38;6.10;99.90
50570;DHT22;36525;49.398;7.614;2023-04-03T08:57:44;7.90;99.90
50570;DHT22;36525;49.398;7.614;2023-04-03T09:00:23;8.10;99.90
50570;DHT22;36525;49.398;7.614;2023-04-03T09:02:53;8.20;99.90
50570;DHT22;36525;49.398;7.614;2023-04-03T09:05:40;8.00;99.90
50570;DHT22;36525;49.398;7.614;2023-04-03T09:08:32;9.00;99.90
50570;DHT22;36525;49.398;7.614;2023-04-03T09:11:25;9.10;99.90
50570;DHT22;36525;49.398;7.614;2023-04-03T09:23:22;8.20;99.90
50570;DHT22;36525;49.398;7.614;2023-04-03T09:26:06;8.20;99.90
50570;DHT22;36525;49.398;7.614;2023-04-03T09:28:40;8.40;99.90
50570;DHT22;36525;49.398;7.614;2023-04-03T09:31:20;9.00;99.90
50570;DHT22;36525;49.398;7.614;2023-04-03T09:33:53;8.60;99.90
50570;DHT22;36525;49.398;7.614;2023-04-03T09:36:46;8.10;99.90
50570;DHT22;36525;49.398;7.614;2023-04-03T09:39:29;8.80;99.90
50570;DHT22;36525;49.398;7.614;2023-04-03T09:42:20;9.70;99.90
50570;DHT22;36525;49.398;7.614;2023-04-03T09:45:00;10.00;99.90
50570;DHT22;36525;49.398;7.614;2023-04-03T09:47:34;10.20;99.90
50570;DHT22;36525;49.398;7.614;2023-04-03T09:52:49;10.70;99.90
50570;DHT22;36525;49.398;7.614;2023-04-03T09:55:23;11.00;99.90
50570;DHT22;36525;49.398;7.614;2023-04-03T09:57:59;11.30;98.80
50570;DHT22;36525;49.398;7.614;2023-04-03T10:00:31;11.30;98.80
50570;DHT22;36525;49.398;7.614;2023-04-03T10:03:01;11.30;98.90
50570;DHT22;36525;49.398;7.614;2023-04-03T10:05:38;10.80;97.30
50570;DHT22;36525;49.398;7.614;2023-04-03T10:10:44;10.70;97.40
50570;DHT22;36525;49.398;7.614;2023-04-03T10:13:15;11.20;97.00
50570;DHT22;36525;49.398;7.614;2023-04-03T10:24:18;10.80;97.80
50570;DHT22;36525;49.398;7.614;2023-04-03T10:30:08;11.00;98.00
50570;DHT22;36525;49.398;7.614;2023-04-03T10:32:54;10.90;99.90
50570;DHT22;36525;49.398;7.614;2023-04-03T10:38:48;11.30;97.30
50570;DHT22;36525;49.398;7.614;2023-04-03T10:51:23;9.90;97.70
50570;DHT22;36525;49.398;7.614;2023-04-03T10:57:10;9.50;98.40
50570;DHT22;36525;49.398;7.614;2023-04-03T10:59:53;8.90;98.60
50570;DHT22;36525;49.398;7.614;2023-04-03T11:02:26;8.40;98.80
50570;DHT22;36525;49.398;7.614;2023-04-03T11:05:05;8.40;99.90
50570;DHT22;36525;49.398;7.614;2023-04-03T11:07:39;8.60;99.40
50570;DHT22;36525;49.398;7.614;2023-04-03T11:10:41;8.30;98.90
50570;DHT22;36525;49.398;7.614;2023-04-03T11:15:43;7.90;98.70
50570;DHT22;36525;49.398;7.614;2023-04-03T11:18:21;7.90;99.40
50570;DHT22;36525;49.398;7.614;2023-04-03T11:21:21;7.80;98.70
50570;DHT22;36525;49.398;7.614;2023-04-03T11:23:56;8.00;99.40
50570;DHT22;36525;49.398;7.614;2023-04-03T11:26:29;8.10;99.60
50570;DHT22;36525;49.398;7.614;2023-04-03T11:29:02;8.10;99.90
50570;DHT22;36525;49.398;7.614;2023-04-03T11:37:05;7.50;99.90
50570;DHT22;36525;49.398;7.614;2023-04-03T11:40:21;7.40;99.90
50570;DHT22;36525;49.398;7.614;2023-04-03T11:43:02;7.40;99.90
50570;DHT22;36525;49.398;7.614;2023-04-03T11:53:36;7.50;99.90
50570;DHT22;36525;49.398;7.614;2023-04-03T11:59:15;7.60;99.90
50570;DHT22;36525;49.398;7.614;2023-04-03T12:01:52;7.70;99.90
50570;DHT22;36525;49.398;7.614;2023-04-03T12:04:25;7.80;99.90
50570;DHT22;36525;49.398;7.614;2023-04-03T12:07:13;8.00;99.90
50570;DHT22;36525;49.398;7.614;2023-04-03T12:12:40;7.90;99.90
50570;DHT22;36525;49.398;7.614;2023-04-03T12:15:41;8.10;99.90
50570;DHT22;36525;49.398;7.614;2023-04-03T12:21:24;8.10;99.90
50570;DHT22;36525;49.398;7.614;2023-04-03T12:35:44;7.90;99.90
50570;DHT22;36525;49.398;7.614;2023-04-03T12:41:48;7.80;99.90
50570;DHT22;36525;49.398;7.614;2023-04-03T12:47:33;8.30;99.90
50570;DHT22;36525;49.398;7.614;2023-04-03T12:50:24;8.50;99.90
50570;DHT22;36525;49.398;7.614;2023-04-03T12:53:00;8.30;99.80
50570;DHT22;36525;49.398;7.614;2023-04-03T12:55:31;8.20;99.30
50570;DHT22;36525;49.398;7.614;2023-04-03T12:58:14;8.20;98.60
50570;DHT22;36525;49.398;7.614;2023-04-03T13:01:02;8.70;99.10
50570;DHT22;36525;49.398;7.614;2023-04-03T13:03:31;8.90;98.90
50570;DHT22;36525;49.398;7.614;2023-04-03T13:06:01;8.50;98.90
50570;DHT22;36525;49.398;7.614;2023-04-03T13:08:30;8.20;99.90
50570;DHT22;36525;49.398;7.614;2023-04-03T13:13:38;7.80;99.90
50570;DHT22;36525;49.398;7.614;2023-04-03T13:16:10;7.60;99.90
50570;DHT22;36525;49.398;7.614;2023-04-03T13:18:38;7.60;99.90
50570;DHT22;36525;49.398;7.614;2023-04-03T13:24:06;7.70;99.90
50570;DHT22;36525;49.398;7.614;2023-04-03T13:26:42;8.10;99.90
50570;DHT22;36525;49.398;7.614;2023-04-03T13:29:27;8.20;99.90
50570;DHT22;36525;49.398;7.614;2023-04-03T13:31:58;8.10;99.90
50570;DHT22;36525;49.398;7.614;2023-04-03T13:34:29;8.10;99.90
50570;DHT22;36525;49.398;7.614;2023-04-03T13:37:22;7.70;99.20
50570;DHT22;36525;49.398;7.614;2023-04-03T13:40:02;7.60;99.90
50570;DHT22;36525;49.398;7.614;2023-04-03T13:42:32;7.40;99.20
50570;DHT22;36525;49.398;7.614;2023-04-03T13:45:27;7.50;99.20
50570;DHT22;36525;49.398;7.614;2023-04-03T13:48:18;7.70;99.40
50570;DHT22;36525;49.398;7.614;2023-04-03T13:51:05;7.70;99.50
50570;DHT22;36525;49.398;7.614;2023-04-03T13:56:36;7.60;99.90
50570;DHT22;36525;49.398;7.614;2023-04-03T14:04:27;7.50;99.90
50570;DHT22;36525;49.398;7.614;2023-04-03T14:06:58;7.60;99.90
50570;DHT22;36525;49.398;7.614;2023-04-03T14:09:27;7.80;99.90
50570;DHT22;36525;49.398;7.614;2023-04-03T14:11:57;7.90;99.90
50570;DHT22;36525;49.398;7.614;2023-04-03T14:14:30;8.00;99.90
50570;DHT22;36525;49.398;7.614;2023-04-03T14:17:01;8.00;99.90
50570;DHT22;36525;49.398;7.614;2023-04-03T14:19:32;7.80;99.90
50570;DHT22;36525;49.398;7.614;2023-04-03T14:22:13;7.70;99.90
50570;DHT22;36525;49.398;7.614;2023-04-03T14:24:45;7.50;99.90
50570;DHT22;36525;49.398;7.614;2023-04-03T14:27:28;7.50;99.90
50570;DHT22;36525;49.398;7.614;2023-04-03T14:29:59;7.60;99.90
50570;DHT22;36525;49.398;7.614;2023-04-03T14:32:27;7.70;99.90
50570;DHT22;36525;49.398;7.614;2023-04-03T14:34:55;7.70;99.90
50570;DHT22;36525;49.398;7.614;2023-04-03T14:37:27;7.50;99.90
50570;DHT22;36525;49.398;7.614;2023-04-03T14:39:57;7.50;99.90
50570;DHT22;36525;49.398;7.614;2023-04-03T14:42:30;7.50;99.90
50570;DHT22;36525;49.398;7.614;2023-04-03T14:45:01;7.40;99.90
50570;DHT22;36525;49.398;7.614;2023-04-03T14:47:30;7.40;99.90
50570;DHT22;36525;49.398;7.614;2023-04-03T14:50:00;7.30;99.90
50570;DHT22;36525;49.398;7.614;2023-04-03T14:52:31;7.70;99.10
50570;DHT22;36525;49.398;7.614;2023-04-03T14:55:03;7.80;98.80
50570;DHT22;36525;49.398;7.614;2023-04-03T15:05:26;7.80;98.90
50570;DHT22;36525;49.398;7.614;2023-04-03T15:07:54;7.80;98.10
50570;DHT22;36525;49.398;7.614;2023-04-03T15:10:28;7.80;99.20
50570;DHT22;36525;49.398;7.614;2023-04-03T15:12:57;8.30;98.10
50570;DHT22;36525;49.398;7.614;2023-04-03T15:15:28;8.90;97.40
50570;DHT22;36525;49.398;7.614;2023-04-03T15:17:56;9.50;96.60
50570;DHT22;36525;49.398;7.614;2023-04-03T15:20:28;9.60;96.40
50570;DHT22;36525;49.398;7.614;2023-04-03T15:22:57;9.60;96.70
50570;DHT22;36525;49.398;7.614;2023-04-03T15:25:27;9.60;96.10
50570;DHT22;36525;49.398;7.614;2023-04-03T15:27:55;9.00;96.80
50570;DHT22;36525;49.398;7.614;2023-04-03T15:30:23;8.50;96.90
50570;DHT22;36525;49.398;7.614;2023-04-03T15:32:50;8.20;97.10
50570;DHT22;36525;49.398;7.614;2023-04-03T15:35:17;8.00;98.00
50570;DHT22;36525;49.398;7.614;2023-04-03T15:37:45;7.80;97.60
50570;DHT22;36525;49.398;7.614;2023-04-03T15:40:13;7.70;97.40
50570;DHT22;36525;49.398;7.614;2023-04-03T15:42:40;8.70;96.90
50570;DHT22;36525;49.398;7.614;2023-04-03T15:45:08;9.80;96.70
50570;DHT22;36525;49.398;7.614;2023-04-03T15:50:04;11.50;93.30
50570;DHT22;36525;49.398;7.614;2023-04-03T15:52:34;12.50;93.60
50570;DHT22;36525;49.398;7.614;2023-04-03T15:55:02;13.30;91.00
50570;DHT22;36525;49.398;7.614;2023-04-03T15:57:30;12.70;89.50
50570;DHT22;36525;49.398;7.614;2023-04-03T15:59:57;11.60;90.90
50570;DHT22;36525;49.398;7.614;2023-04-03T16:02:23;10.90;90.30
50570;DHT22;36525;49.398;7.614;2023-04-03T16:04:54;10.20;90.80
50570;DHT22;36525;49.398;7.614;2023-04-03T16:07:22;10.60;91.20
50570;DHT22;36525;49.398;7.614;2023-04-03T16:09:49;11.20;88.00
50570;DHT22;36525;49.398;7.614;2023-04-03T16:12:16;11.30;88.00
50570;DHT22;36525;49.398;7.614;2023-04-03T16:14:43;11.80;87.80
50570;DHT22;36525;49.398;7.614;2023-04-03T16:17:10;12.40;86.00
50570;DHT22;36525;49.398;7.614;2023-04-03T16:19:37;12.40;85.70
50570;DHT22;36525;49.398;7.614;2023-04-03T16:22:04;12.50;84.30
50570;DHT22;36525;49.398;7.614;2023-04-03T16:24:32;12.60;84.30
50570;DHT22;36525;49.398;7.614;2023-04-03T16:26:59;12.90;85.10
50570;DHT22;36525;49.398;7.614;2023-04-03T16:29:26;12.70;82.60
50570;DHT22;36525;49.398;7.614;2023-04-03T16:31:54;12.00;84.90
50570;DHT22;36525;49.398;7.614;2023-04-03T16:34:21;11.90;83.90
50570;DHT22;36525;49.398;7.614;2023-04-03T16:36:48;11.90;83.80
50570;DHT22;36525;49.398;7.614;2023-04-03T16:39:15;11.90;84.00
50570;DHT22;36525;49.398;7.614;2023-04-03T16:41:43;11.90;82.70
50570;DHT22;36525;49.398;7.614;2023-04-03T16:46:37;11.60;82.10
50570;DHT22;36525;49.398;7.614;2023-04-03T16:49:04;11.60;82.00
50570;DHT22;36525;49.398;7.614;2023-04-03T16:51:31;11.50;82.60
50570;DHT22;36525;49.398;7.614;2023-04-03T16:53:58;11.50;82.30
50570;DHT22;36525;49.398;7.614;2023-04-03T16:56:26;11.60;80.40
50570;DHT22;36525;49.398;7.614;2023-04-03T16:58:53;11.60;81.60
50570;DHT22;36525;49.398;7.614;2023-04-03T17:01:22;11.50;81.40
50570;DHT22;36525;49.398;7.614;2023-04-03T17:03:49;11.20;81.90
50570;DHT22;36525;49.398;7.614;2023-04-03T17:06:19;10.80;83.80
50570;DHT22;36525;49.398;7.614;2023-04-03T17:08:48;10.00;85.50
50570;DHT22;36525;49.398;7.614;2023-04-03T17:11:17;9.50;88.00
50570;DHT22;36525;49.398;7.614;2023-04-03T17:13:45;9.00;90.00
50570;DHT22;36525;49.398;7.614;2023-04-03T17:16:14;8.70;91.00
50570;DHT22;36525;49.398;7.614;2023-04-03T17:18:42;8.40;91.50
50570;DHT22;36525;49.398;7.614;2023-04-03T17:21:11;8.00;91.80
50570;DHT22;36525;49.398;7.614;2023-04-03T17:23:39;7.70;92.40
50570;DHT22;36525;49.398;7.614;2023-04-03T17:26:08;7.40;92.70
50570;DHT22;36525;49.398;7.614;2023-04-03T17:28:35;7.10;93.70
50570;DHT22;36525;49.398;7.614;2023-04-03T17:31:02;7.00;94.10
50570;DHT22;36525;49.398;7.614;2023-04-03T17:33:30;6.80;94.40
50570;DHT22;36525;49.398;7.614;2023-04-03T17:36:01;6.60;94.40
50570;DHT22;36525;49.398;7.614;2023-04-03T17:38:30;6.60;94.50
50570;DHT22;36525;49.398;7.614;2023-04-03T17:41:00;6.40;95.00
50570;DHT22;36525;49.398;7.614;2023-04-03T17:43:29;6.30;94.90
50570;DHT22;36525;49.398;7.614;2023-04-03T17:46:01;6.20;95.20
50570;DHT22;36525;49.398;7.614;2023-04-03T17:48:36;6.10;95.30
50570;DHT22;36525;49.398;7.614;2023-04-03T17:51:08;6.00;96.00
50570;DHT22;36525;49.398;7.614;2023-04-03T17:53:37;6.00;96.00
50570;DHT22;36525;49.398;7.614;2023-04-03T17:56:22;5.80;96.50
50570;DHT22;36525;49.398;7.614;2023-04-03T17:58:50;5.70;96.60
50570;DHT22;36525;49.398;7.614;2023-04-03T18:01:23;5.70;96.70
50570;DHT22;36525;49.398;7.614;2023-04-03T18:03:55;5.60;96.60
50570;DHT22;36525;49.398;7.614;2023-04-03T18:06:29;5.50;96.80
50570;DHT22;36525;49.398;7.614;2023-04-03T18:09:04;5.40;97.10
50570;DHT22;36525;49.398;7.614;2023-04-03T18:11:36;5.30;97.00
50570;DHT22;36525;49.398;7.614;2023-04-03T18:14:06;5.30;97.00